PWSweather.com
Personal Weather Stations
Station Observations
PICKERING
North Yorkshire, PickeringGB

North YorkshirePickeringGB

Lat: 54.2494, Lon: -0.7725

Elevation: 192

Station Type: Oregon Scientific WMR100

http://www.yorkshirewalker.co.uk/weather/

High Low Average
Temperature 63.7°F17.6°C 42.4°F5.8°C 51.5°F10.8°C
Dew Point 55.4°F13.0°C 39.2°F4.0°C 45.9°F7.7°C
Winds 6.6 mph 10.6 kmh Calm Calm 2.0 mph SSW3.2 kmh SSW
Wind Gusts 13.2 mph21.2 kmh -- 4.0 mph6.4 kmh
Humidity 86% 72% 80%
Pressure 29.68 in1005.1 mb 29.36 in994.2 mb -
Precipitation 0.70 in17.8 mm - -
Hour Temp Dew Point Humidity Winds Wind Gusts Pressure Precip Precip Rate Daily Precip Total
12:00 AM 63.7°F17.6°C 55.4°F13.0°C 74% 6.6 mph SSW10.6 kmh SSW 10.3 mph16.6 kmh 29.36 in994.2 mb 0.00 in0.0 mm 0.00 in0.0 mm 0.00 in0.0 mm
12:05 AM 63.7°F17.6°C 55.4°F13.0°C 74% 5.1 mph SSW8.2 kmh SSW 7.8 mph12.6 kmh 29.36 in994.2 mb 0.00 in0.0 mm 0.00 in0.0 mm 0.00 in0.0 mm
12:10 AM 63.5°F17.5°C 55.4°F13.0°C 74% 4.7 mph SSW7.6 kmh SSW 10.7 mph17.2 kmh 29.36 in994.2 mb 0.00 in0.0 mm 0.00 in0.0 mm 0.00 in0.0 mm
12:15 AM 63.5°F17.5°C 55.4°F13.0°C 74% 5.2 mph SW8.4 kmh SW 10.7 mph17.2 kmh 29.36 in994.2 mb 0.00 in0.0 mm 0.00 in0.0 mm 0.00 in0.0 mm
12:20 AM 63.3°F17.4°C 55.4°F13.0°C 74% 5.2 mph SSW8.4 kmh SSW 7.8 mph12.6 kmh 29.36 in994.2 mb 0.00 in0.0 mm 0.00 in0.0 mm 0.00 in0.0 mm
12:25 AM 63.3°F17.4°C 55.4°F13.0°C 74% 5.5 mph SSW8.9 kmh SSW 7.6 mph12.2 kmh 29.36 in994.2 mb 0.00 in0.0 mm 0.00 in0.0 mm 0.00 in0.0 mm
12:30 AM 63.1°F17.3°C 55.4°F13.0°C 74% 5.7 mph SSW9.2 kmh SSW 7.4 mph11.9 kmh 29.36 in994.2 mb 0.00 in0.0 mm 0.00 in0.0 mm 0.00 in0.0 mm
12:35 AM 63.1°F17.3°C 55.4°F13.0°C 74% 5.6 mph SSW9.0 kmh SSW 9.6 mph15.4 kmh 29.36 in994.2 mb 0.00 in0.0 mm 0.00 in0.0 mm 0.00 in0.0 mm
12:40 AM 63.1°F17.3°C 55.4°F13.0°C 74% 5.8 mph SSW9.3 kmh SSW 10.1 mph16.3 kmh 29.36 in994.2 mb 0.00 in0.0 mm 0.00 in0.0 mm 0.00 in0.0 mm
12:45 AM 63.1°F17.3°C 55.4°F13.0°C 74% 5.9 mph SW9.5 kmh SW 10.1 mph16.3 kmh 29.36 in994.2 mb 0.00 in0.0 mm 0.00 in0.0 mm 0.00 in0.0 mm
12:50 AM 63.1°F17.3°C 55.4°F13.0°C 74% 5.8 mph SW9.3 kmh SW 13.2 mph21.2 kmh 29.36 in994.2 mb 0.00 in0.0 mm 0.00 in0.0 mm 0.00 in0.0 mm
12:55 AM 63.0°F17.2°C 55.4°F13.0°C 74% 5.9 mph SW9.5 kmh SW 13.2 mph21.2 kmh 29.36 in994.2 mb 0.00 in0.0 mm 0.00 in0.0 mm 0.00 in0.0 mm
01:00 AM 62.8°F17.1°C 55.4°F13.0°C 74% 6.3 mph SSW10.1 kmh SSW 13.2 mph21.2 kmh 29.36 in994.2 mb 0.00 in0.0 mm 0.00 in0.0 mm 0.00 in0.0 mm
01:05 AM 62.8°F17.1°C 55.4°F13.0°C 74% 5.4 mph S8.7 kmh S 8.5 mph13.7 kmh 29.36 in994.2 mb 0.00 in0.0 mm 0.00 in0.0 mm 0.00 in0.0 mm
01:10 AM 62.8°F17.1°C 55.4°F13.0°C 74% 4.9 mph S7.9 kmh S 8.5 mph13.7 kmh 29.36 in994.2 mb 0.00 in0.0 mm 0.00 in0.0 mm 0.00 in0.0 mm
01:15 AM 62.8°F17.1°C 53.6°F12.0°C 73% 4.2 mph S6.8 kmh S 8.5 mph13.7 kmh 29.36 in994.2 mb 0.00 in0.0 mm 0.00 in0.0 mm 0.00 in0.0 mm
01:20 AM 62.8°F17.1°C 53.6°F12.0°C 73% 4.3 mph SSW6.9 kmh SSW 7.6 mph12.2 kmh 29.39 in995.3 mb 0.00 in0.0 mm 0.00 in0.0 mm 0.00 in0.0 mm
01:25 AM 62.8°F17.1°C 53.6°F12.0°C 73% 3.9 mph SSW6.3 kmh SSW 7.6 mph12.2 kmh 29.39 in995.3 mb 0.00 in0.0 mm 0.00 in0.0 mm 0.00 in0.0 mm
01:30 AM 62.6°F17.0°C 55.4°F13.0°C 74% 2.8 mph SSW4.5 kmh SSW 4.9 mph7.9 kmh 29.39 in995.3 mb 0.00 in0.0 mm 0.00 in0.0 mm 0.00 in0.0 mm
01:35 AM 62.4°F16.9°C 55.4°F13.0°C 75% 2.4 mph SSW3.9 kmh SSW 4.9 mph7.9 kmh 29.39 in995.3 mb 0.00 in0.0 mm 0.00 in0.0 mm 0.00 in0.0 mm
01:40 AM 62.2°F16.8°C 55.4°F13.0°C 75% 2.3 mph SSW3.7 kmh SSW 4.9 mph7.9 kmh 29.39 in995.3 mb 0.00 in0.0 mm 0.00 in0.0 mm 0.00 in0.0 mm
01:45 AM 62.2°F16.8°C 55.4°F13.0°C 75% 2.3 mph SW3.7 kmh SW 4.9 mph7.9 kmh 29.39 in995.3 mb 0.00 in0.0 mm 0.00 in0.0 mm 0.00 in0.0 mm
01:50 AM 62.1°F16.7°C 55.4°F13.0°C 75% 2.3 mph SW3.7 kmh SW 4.9 mph7.9 kmh 29.39 in995.3 mb 0.00 in0.0 mm 0.00 in0.0 mm 0.00 in0.0 mm
01:55 AM 62.1°F16.7°C 55.4°F13.0°C 75% 2.5 mph SW4.0 kmh SW 6.5 mph10.5 kmh 29.39 in995.3 mb 0.00 in0.0 mm 0.00 in0.0 mm 0.00 in0.0 mm
02:00 AM 62.1°F16.7°C 55.4°F13.0°C 75% 3.1 mph SW5.0 kmh SW 6.9 mph11.1 kmh 29.39 in995.3 mb 0.00 in0.0 mm 0.00 in0.0 mm 0.00 in0.0 mm
02:05 AM 61.9°F16.6°C 53.6°F12.0°C 74% 4.0 mph SSW6.4 kmh SSW 6.9 mph11.1 kmh 29.36 in994.2 mb 0.00 in0.0 mm 0.00 in0.0 mm 0.00 in0.0 mm
02:10 AM 61.7°F16.5°C 53.6°F12.0°C 74% 4.0 mph SSW6.4 kmh SSW 6.5 mph10.5 kmh 29.36 in994.2 mb 0.00 in0.0 mm 0.00 in0.0 mm 0.00 in0.0 mm
02:15 AM 61.5°F16.4°C 53.6°F12.0°C 74% 3.0 mph SSW4.8 kmh SSW 6.5 mph10.5 kmh 29.36 in994.2 mb 0.00 in0.0 mm 0.00 in0.0 mm 0.00 in0.0 mm
02:20 AM 61.3°F16.3°C 53.6°F12.0°C 74% 3.2 mph SSW5.1 kmh SSW 5.8 mph9.3 kmh 29.39 in995.3 mb 0.00 in0.0 mm 0.00 in0.0 mm 0.00 in0.0 mm
02:25 AM 61.3°F16.3°C 53.6°F12.0°C 75% 3.4 mph SSW5.5 kmh SSW 5.8 mph9.3 kmh 29.39 in995.3 mb 0.00 in0.0 mm 0.00 in0.0 mm 0.00 in0.0 mm
02:30 AM 61.3°F16.3°C 53.6°F12.0°C 75% 2.8 mph SW4.5 kmh SW 5.8 mph9.3 kmh 29.39 in995.3 mb 0.00 in0.0 mm 0.00 in0.0 mm 0.00 in0.0 mm
02:35 AM 61.2°F16.2°C 53.6°F12.0°C 75% 2.2 mph SW3.5 kmh SW 5.8 mph9.3 kmh 29.39 in995.3 mb 0.00 in0.0 mm 0.00 in0.0 mm 0.00 in0.0 mm
02:40 AM 61.2°F16.2°C 53.6°F12.0°C 75% 2.3 mph SW3.7 kmh SW 5.8 mph9.3 kmh 29.39 in995.3 mb 0.00 in0.0 mm 0.00 in0.0 mm 0.00 in0.0 mm
02:45 AM 61.2°F16.2°C 53.6°F12.0°C 75% 1.7 mph SW2.7 kmh SW 3.1 mph5.0 kmh 29.39 in995.3 mb 0.00 in0.0 mm 0.00 in0.0 mm 0.00 in0.0 mm
02:50 AM 61.2°F16.2°C 53.6°F12.0°C 74% 2.2 mph SSW3.5 kmh SSW 4.3 mph6.9 kmh 29.39 in995.3 mb 0.00 in0.0 mm 0.00 in0.0 mm 0.00 in0.0 mm
02:55 AM 61.0°F16.1°C 53.6°F12.0°C 74% 1.8 mph SSW2.9 kmh SSW 4.3 mph6.9 kmh 29.39 in995.3 mb 0.00 in0.0 mm 0.00 in0.0 mm 0.00 in0.0 mm
03:00 AM 61.0°F16.1°C 53.6°F12.0°C 74% 1.9 mph SSW3.1 kmh SSW 5.8 mph9.3 kmh 29.39 in995.3 mb 0.00 in0.0 mm 0.00 in0.0 mm 0.00 in0.0 mm
03:05 AM 61.0°F16.1°C 53.6°F12.0°C 74% 2.9 mph SW4.7 kmh SW 5.8 mph9.3 kmh 29.39 in995.3 mb 0.00 in0.0 mm 0.00 in0.0 mm 0.00 in0.0 mm
03:10 AM 61.0°F16.1°C 53.6°F12.0°C 74% 2.5 mph SW4.0 kmh SW 3.8 mph6.1 kmh 29.39 in995.3 mb 0.00 in0.0 mm 0.00 in0.0 mm 0.00 in0.0 mm
03:15 AM 60.8°F16.0°C 51.8°F11.0°C 73% 2.1 mph SW3.4 kmh SW 3.8 mph6.1 kmh 29.39 in995.3 mb 0.00 in0.0 mm 0.00 in0.0 mm 0.00 in0.0 mm
03:20 AM 60.8°F16.0°C 51.8°F11.0°C 73% 2.3 mph SW3.7 kmh SW 6.5 mph10.5 kmh 29.41 in995.9 mb 0.00 in0.0 mm 0.00 in0.0 mm 0.00 in0.0 mm
03:25 AM 60.6°F15.9°C 51.8°F11.0°C 73% 3.2 mph SW5.1 kmh SW 6.5 mph10.5 kmh 29.41 in995.9 mb 0.00 in0.0 mm 0.00 in0.0 mm 0.00 in0.0 mm
03:30 AM 60.4°F15.8°C 51.8°F11.0°C 73% 3.5 mph SW5.6 kmh SW 5.6 mph9.0 kmh 29.41 in995.9 mb 0.00 in0.0 mm 0.00 in0.0 mm 0.00 in0.0 mm
03:35 AM 60.4°F15.8°C 51.8°F11.0°C 73% 3.7 mph SW6.0 kmh SW 5.6 mph9.0 kmh 29.41 in995.9 mb 0.00 in0.0 mm 0.00 in0.0 mm 0.00 in0.0 mm
03:40 AM 60.3°F15.7°C 51.8°F11.0°C 73% 3.8 mph WSW6.1 kmh WSW 6.3 mph10.1 kmh 29.41 in995.9 mb 0.00 in0.0 mm 0.00 in0.0 mm 0.00 in0.0 mm
03:45 AM 60.1°F15.6°C 51.8°F11.0°C 73% 5.1 mph WSW8.2 kmh WSW 7.6 mph12.2 kmh 29.41 in995.9 mb 0.00 in0.0 mm 0.00 in0.0 mm 0.00 in0.0 mm
03:50 AM 60.1°F15.6°C 51.8°F11.0°C 72% 5.3 mph WSW8.5 kmh WSW 7.6 mph12.2 kmh 29.41 in995.9 mb 0.00 in0.0 mm 0.00 in0.0 mm 0.00 in0.0 mm
03:55 AM 59.9°F15.5°C 51.8°F11.0°C 72% 4.0 mph SW6.4 kmh SW 7.6 mph12.2 kmh 29.41 in995.9 mb 0.00 in0.0 mm 0.00 in0.0 mm 0.00 in0.0 mm
04:00 AM 59.9°F15.5°C 51.8°F11.0°C 72% 4.3 mph SSW6.9 kmh SSW 6.3 mph10.1 kmh 29.41 in995.9 mb 0.00 in0.0 mm 0.00 in0.0 mm 0.00 in0.0 mm
04:05 AM 59.9°F15.5°C 51.8°F11.0°C 72% 5.0 mph SSW8.0 kmh SSW 7.6 mph12.2 kmh 29.41 in995.9 mb 0.00 in0.0 mm 0.00 in0.0 mm 0.00 in0.0 mm
04:10 AM 59.7°F15.4°C 51.8°F11.0°C 72% 4.1 mph SW6.6 kmh SW 7.6 mph12.2 kmh 29.41 in995.9 mb 0.00 in0.0 mm 0.00 in0.0 mm 0.00 in0.0 mm
04:15 AM 59.7°F15.4°C 51.8°F11.0°C 72% 3.7 mph SW6.0 kmh SW 7.4 mph11.9 kmh 29.41 in995.9 mb 0.00 in0.0 mm 0.00 in0.0 mm 0.00 in0.0 mm
04:20 AM 59.7°F15.4°C 51.8°F11.0°C 72% 4.1 mph SW6.6 kmh SW 7.4 mph11.9 kmh 29.41 in995.9 mb 0.00 in0.0 mm 0.00 in0.0 mm 0.00 in0.0 mm
04:25 AM 59.5°F15.3°C 51.8°F11.0°C 72% 3.9 mph SW6.3 kmh SW 4.9 mph7.9 kmh 29.41 in995.9 mb 0.00 in0.0 mm 0.00 in0.0 mm 0.00 in0.0 mm
04:30 AM 59.5°F15.3°C 51.8°F11.0°C 72% 5.1 mph SW8.2 kmh SW 8.9 mph14.3 kmh 29.41 in995.9 mb 0.00 in0.0 mm 0.00 in0.0 mm 0.00 in0.0 mm
04:35 AM 59.2°F15.1°C 50.0°F10.0°C 72% 5.4 mph WSW8.7 kmh WSW 8.9 mph14.3 kmh 29.45 in997.3 mb 0.00 in0.0 mm 0.00 in0.0 mm 0.00 in0.0 mm
04:40 AM 59.0°F15.0°C 50.0°F10.0°C 72% 4.5 mph WSW7.2 kmh WSW 7.2 mph11.6 kmh 29.45 in997.3 mb 0.00 in0.0 mm 0.00 in0.0 mm 0.00 in0.0 mm
04:45 AM 58.8°F14.9°C 50.0°F10.0°C 73% 3.8 mph SW6.1 kmh SW 6.9 mph11.1 kmh 29.45 in997.3 mb 0.00 in0.0 mm 0.00 in0.0 mm 0.00 in0.0 mm
04:50 AM 58.8°F14.9°C 50.0°F10.0°C 73% 3.9 mph SW6.3 kmh SW 6.5 mph10.5 kmh 29.45 in997.3 mb 0.00 in0.0 mm 0.00 in0.0 mm 0.00 in0.0 mm
04:55 AM 58.6°F14.8°C 50.0°F10.0°C 73% 4.2 mph WSW6.8 kmh WSW 6.5 mph10.5 kmh 29.45 in997.3 mb 0.00 in0.0 mm 0.00 in0.0 mm 0.00 in0.0 mm
05:00 AM 58.5°F14.7°C 50.0°F10.0°C 73% 4.4 mph SW7.1 kmh SW 6.5 mph10.5 kmh 29.45 in997.3 mb 0.00 in0.0 mm 0.00 in0.0 mm 0.00 in0.0 mm
05:05 AM 58.3°F14.6°C 50.0°F10.0°C 74% 4.5 mph WSW7.2 kmh WSW 6.5 mph10.5 kmh 29.45 in997.3 mb 0.00 in0.0 mm 0.00 in0.0 mm 0.00 in0.0 mm
05:10 AM 58.1°F14.5°C 50.0°F10.0°C 74% 4.5 mph WSW7.2 kmh WSW 8.5 mph13.7 kmh 29.45 in997.3 mb 0.00 in0.0 mm 0.00 in0.0 mm 0.00 in0.0 mm
05:15 AM 57.9°F14.4°C 50.0°F10.0°C 74% 3.8 mph SW6.1 kmh SW 8.5 mph13.7 kmh 29.45 in997.3 mb 0.00 in0.0 mm 0.00 in0.0 mm 0.00 in0.0 mm
05:20 AM 57.7°F14.3°C 50.0°F10.0°C 74% 3.9 mph WSW6.3 kmh WSW 6.5 mph10.5 kmh 29.45 in997.3 mb 0.00 in0.0 mm 0.00 in0.0 mm 0.00 in0.0 mm
05:25 AM 57.7°F14.3°C 50.0°F10.0°C 74% 3.4 mph WSW5.5 kmh WSW 6.5 mph10.5 kmh 29.45 in997.3 mb 0.00 in0.0 mm 0.00 in0.0 mm 0.00 in0.0 mm
05:30 AM 57.6°F14.2°C 50.0°F10.0°C 75% 2.6 mph WSW4.2 kmh WSW 4.7 mph7.6 kmh 29.45 in997.3 mb 0.00 in0.0 mm 0.00 in0.0 mm 0.00 in0.0 mm
05:35 AM 57.2°F14.0°C 50.0°F10.0°C 74% 3.2 mph NW5.1 kmh NW 7.6 mph12.2 kmh 29.45 in997.3 mb 0.00 in0.0 mm 0.00 in0.0 mm 0.00 in0.0 mm
05:40 AM 56.8°F13.8°C 48.2°F9.0°C 72% 4.0 mph NW6.4 kmh NW 7.8 mph12.6 kmh 29.45 in997.3 mb 0.00 in0.0 mm 0.00 in0.0 mm 0.00 in0.0 mm
05:45 AM 56.7°F13.7°C 48.2°F9.0°C 72% 4.7 mph WNW7.6 kmh WNW 8.7 mph14.0 kmh 29.45 in997.3 mb 0.00 in0.0 mm 0.00 in0.0 mm 0.00 in0.0 mm
05:50 AM 56.3°F13.5°C 48.2°F9.0°C 72% 4.8 mph WNW7.7 kmh WNW 8.7 mph14.0 kmh 29.47 in998.0 mb 0.00 in0.0 mm 0.00 in0.0 mm 0.00 in0.0 mm
05:55 AM 56.3°F13.5°C 48.2°F9.0°C 72% 3.7 mph NW6.0 kmh NW 8.7 mph14.0 kmh 29.47 in998.0 mb 0.00 in0.0 mm 0.00 in0.0 mm 0.00 in0.0 mm
06:00 AM 55.9°F13.3°C 48.2°F9.0°C 72% 2.8 mph NNW4.5 kmh NNW 4.3 mph6.9 kmh 29.47 in998.0 mb 0.00 in0.0 mm 0.00 in0.0 mm 0.00 in0.0 mm
06:05 AM 55.8°F13.2°C 48.2°F9.0°C 72% 3.3 mph NW5.3 kmh NW 5.4 mph8.7 kmh 29.47 in998.0 mb 0.00 in0.0 mm 0.00 in0.0 mm 0.00 in0.0 mm
06:10 AM 55.4°F13.0°C 48.2°F9.0°C 72% 2.8 mph NW4.5 kmh NW 5.4 mph8.7 kmh 29.47 in998.0 mb 0.00 in0.0 mm 0.00 in0.0 mm 0.00 in0.0 mm
06:15 AM 55.2°F12.9°C 48.2°F9.0°C 73% 2.1 mph WNW3.4 kmh WNW 3.6 mph5.8 kmh 29.47 in998.0 mb 0.00 in0.0 mm 0.00 in0.0 mm 0.00 in0.0 mm
06:20 AM 55.2°F12.9°C 48.2°F9.0°C 73% 2.0 mph NW3.2 kmh NW 5.8 mph9.3 kmh 29.47 in998.0 mb 0.00 in0.0 mm 0.00 in0.0 mm 0.00 in0.0 mm
06:25 AM 55.0°F12.8°C 48.2°F9.0°C 73% 3.0 mph NW4.8 kmh NW 5.8 mph9.3 kmh 29.47 in998.0 mb 0.00 in0.0 mm 0.00 in0.0 mm 0.00 in0.0 mm
06:30 AM 54.7°F12.6°C 46.4°F8.0°C 73% 2.8 mph NW4.5 kmh NW 5.8 mph9.3 kmh 29.47 in998.0 mb 0.00 in0.0 mm 0.00 in0.0 mm 0.00 in0.0 mm
06:35 AM 54.5°F12.5°C 46.4°F8.0°C 73% 2.8 mph NW4.5 kmh NW 5.8 mph9.3 kmh 29.47 in998.0 mb 0.00 in0.0 mm 0.00 in0.0 mm 0.00 in0.0 mm
06:40 AM 54.5°F12.5°C 46.4°F8.0°C 73% 2.7 mph NNW4.3 kmh NNW 5.8 mph9.3 kmh 29.47 in998.0 mb 0.00 in0.0 mm 0.00 in0.0 mm 0.00 in0.0 mm
06:45 AM 54.5°F12.5°C 48.2°F9.0°C 74% 1.6 mph N2.6 kmh N 4.7 mph7.6 kmh 29.47 in998.0 mb 0.00 in0.0 mm 0.00 in0.0 mm 0.00 in0.0 mm
06:50 AM 54.3°F12.4°C 46.4°F8.0°C 74% 1.2 mph NNW1.9 kmh NNW 4.7 mph7.6 kmh 29.47 in998.0 mb 0.00 in0.0 mm 0.00 in0.0 mm 0.00 in0.0 mm
06:55 AM 54.3°F12.4°C 46.4°F8.0°C 74% 0.7 mph WSW1.1 kmh WSW 2.0 mph3.2 kmh 29.47 in998.0 mb 0.00 in0.0 mm 0.00 in0.0 mm 0.00 in0.0 mm
07:00 AM 54.3°F12.4°C 46.4°F8.0°C 74% 0.8 mph W1.3 kmh W 1.3 mph2.1 kmh 29.47 in998.0 mb 0.00 in0.0 mm 0.00 in0.0 mm 0.00 in0.0 mm
07:05 AM 54.3°F12.4°C 46.4°F8.0°C 74% 0.7 mph WNW1.1 kmh WNW 2.0 mph3.2 kmh 29.50 in999.0 mb 0.00 in0.0 mm 0.00 in0.0 mm 0.00 in0.0 mm
07:10 AM 54.1°F12.3°C 46.4°F8.0°C 74% 0.4 mph WSW0.6 kmh WSW 2.0 mph3.2 kmh 29.50 in999.0 mb 0.00 in0.0 mm 0.00 in0.0 mm 0.00 in0.0 mm
07:15 AM 54.1°F12.3°C 48.2°F9.0°C 76% 0.1 mph NW0.2 kmh NW 0.9 mph1.4 kmh 29.50 in999.0 mb 0.00 in0.0 mm 0.00 in0.0 mm 0.00 in0.0 mm
07:20 AM 53.8°F12.1°C 46.4°F8.0°C 76% 0.4 mph NW0.6 kmh NW 1.1 mph1.8 kmh 29.47 in998.0 mb 0.00 in0.0 mm 0.00 in0.0 mm 0.00 in0.0 mm
07:25 AM 53.6°F12.0°C 48.2°F9.0°C 77% 0.3 mph NW0.5 kmh NW 1.1 mph1.8 kmh 29.47 in998.0 mb 0.00 in0.0 mm 0.00 in0.0 mm 0.00 in0.0 mm
07:30 AM 53.4°F11.9°C 46.4°F8.0°C 77% 0.1 mph WSW0.2 kmh WSW 1.3 mph2.1 kmh 29.47 in998.0 mb 0.00 in0.0 mm 0.00 in0.0 mm 0.00 in0.0 mm
07:35 AM 53.4°F11.9°C 46.4°F8.0°C 77% 1.0 mph WSW1.6 kmh WSW 2.9 mph4.7 kmh 29.50 in999.0 mb 0.00 in0.0 mm 0.00 in0.0 mm 0.00 in0.0 mm
07:40 AM 53.2°F11.8°C 46.4°F8.0°C 78% 2.0 mph W3.2 kmh W 3.1 mph5.0 kmh 29.50 in999.0 mb 0.00 in0.0 mm 0.00 in0.0 mm 0.00 in0.0 mm
07:45 AM 53.2°F11.8°C 46.4°F8.0°C 78% 2.1 mph W3.4 kmh W 3.1 mph5.0 kmh 29.50 in999.0 mb 0.00 in0.0 mm 0.00 in0.0 mm 0.00 in0.0 mm
07:50 AM 53.1°F11.7°C 46.4°F8.0°C 78% 1.6 mph WNW2.6 kmh WNW 2.5 mph4.0 kmh 29.47 in998.0 mb 0.06 in1.5 mm 0.72 in18.3 mm 0.06 in1.5 mm
07:55 AM 52.9°F11.6°C 46.4°F8.0°C 78% 1.5 mph NW2.4 kmh NW 2.7 mph4.3 kmh 29.47 in998.0 mb 0.06 in1.5 mm 0.00 in0.0 mm 0.06 in1.5 mm
08:00 AM 52.5°F11.4°C 46.4°F8.0°C 78% 1.1 mph NNW1.8 kmh NNW 2.7 mph4.3 kmh 29.47 in998.0 mb 0.06 in1.5 mm 0.00 in0.0 mm 0.06 in1.5 mm
08:05 AM 52.5°F11.4°C 46.4°F8.0°C 78% 0.8 mph N1.3 kmh N 2.7 mph4.3 kmh 29.47 in998.0 mb 0.06 in1.5 mm 0.00 in0.0 mm 0.06 in1.5 mm
08:10 AM 52.5°F11.4°C 46.4°F8.0°C 78% 0.7 mph NNW1.1 kmh NNW 2.2 mph3.5 kmh 29.47 in998.0 mb 0.06 in1.5 mm 0.00 in0.0 mm 0.06 in1.5 mm
08:15 AM 52.5°F11.4°C 46.4°F8.0°C 79% 0.6 mph NNW1.0 kmh NNW 2.2 mph3.5 kmh 29.47 in998.0 mb 0.06 in1.5 mm 0.00 in0.0 mm 0.06 in1.5 mm
08:20 AM 52.3°F11.3°C 46.4°F8.0°C 78% 1.1 mph NNW1.8 kmh NNW 3.6 mph5.8 kmh 29.50 in999.0 mb 0.06 in1.5 mm 0.00 in0.0 mm 0.06 in1.5 mm
08:25 AM 52.2°F11.2°C 46.4°F8.0°C 78% 1.4 mph NNW2.3 kmh NNW 3.6 mph5.8 kmh 29.50 in999.0 mb 0.06 in1.5 mm 0.00 in0.0 mm 0.06 in1.5 mm
08:30 AM 52.2°F11.2°C 46.4°F8.0°C 78% 1.4 mph N2.3 kmh N 2.5 mph4.0 kmh 29.50 in999.0 mb 0.06 in1.5 mm 0.00 in0.0 mm 0.06 in1.5 mm
08:35 AM 52.0°F11.1°C 46.4°F8.0°C 79% 1.4 mph N2.3 kmh N 2.5 mph4.0 kmh 29.50 in999.0 mb 0.11 in2.8 mm 0.60 in15.2 mm 0.11 in2.8 mm
08:40 AM 51.6°F10.9°C 46.4°F8.0°C 79% 1.6 mph NNW2.6 kmh NNW 3.4 mph5.5 kmh 29.50 in999.0 mb 0.11 in2.8 mm 0.00 in0.0 mm 0.11 in2.8 mm
08:45 AM 51.6°F10.9°C 46.4°F8.0°C 79% 1.3 mph NNW2.1 kmh NNW 3.4 mph5.5 kmh 29.50 in999.0 mb 0.11 in2.8 mm 0.00 in0.0 mm 0.11 in2.8 mm
08:50 AM 51.6°F10.9°C 46.4°F8.0°C 80% 1.0 mph NNW1.6 kmh NNW 2.7 mph4.3 kmh 29.50 in999.0 mb 0.06 in1.5 mm 0.00 in0.0 mm 0.11 in2.8 mm
08:55 AM 51.4°F10.8°C 46.4°F8.0°C 80% 1.6 mph N2.6 kmh N 2.7 mph4.3 kmh 29.50 in999.0 mb 0.11 in2.8 mm 0.60 in15.2 mm 0.17 in4.3 mm
09:00 AM 51.1°F10.6°C 44.6°F7.0°C 79% 2.6 mph N4.2 kmh N 5.4 mph8.7 kmh 29.50 in999.0 mb 0.11 in2.8 mm 0.00 in0.0 mm 0.17 in4.3 mm
09:05 AM 50.7°F10.4°C 44.6°F7.0°C 79% 4.6 mph N7.4 kmh N 9.4 mph15.1 kmh 29.47 in998.0 mb 0.11 in2.8 mm 0.00 in0.0 mm 0.17 in4.3 mm
09:10 AM 50.7°F10.4°C 44.6°F7.0°C 79% 4.8 mph N7.7 kmh N 9.4 mph15.1 kmh 29.47 in998.0 mb 0.11 in2.8 mm 0.00 in0.0 mm 0.17 in4.3 mm
09:15 AM 50.5°F10.3°C 44.6°F7.0°C 79% 3.9 mph N6.3 kmh N 6.5 mph10.5 kmh 29.47 in998.0 mb 0.11 in2.8 mm 0.00 in0.0 mm 0.17 in4.3 mm
09:20 AM 50.5°F10.3°C 44.6°F7.0°C 79% 2.9 mph NW4.7 kmh NW 4.9 mph7.9 kmh 29.47 in998.0 mb 0.11 in2.8 mm 0.00 in0.0 mm 0.17 in4.3 mm
09:25 AM 50.5°F10.3°C 44.6°F7.0°C 79% 1.8 mph NNW2.9 kmh NNW 3.6 mph5.8 kmh 29.47 in998.0 mb 0.11 in2.8 mm 0.00 in0.0 mm 0.17 in4.3 mm
09:30 AM 50.4°F10.2°C 44.6°F7.0°C 79% 1.0 mph SW1.6 kmh SW 2.2 mph3.5 kmh 29.47 in998.0 mb 0.11 in2.8 mm 0.00 in0.0 mm 0.17 in4.3 mm
09:35 AM 50.5°F10.3°C 44.6°F7.0°C 80% 0.6 mph SSW1.0 kmh SSW 2.2 mph3.5 kmh 29.53 in1000.0 mb 0.06 in1.5 mm 0.00 in0.0 mm 0.17 in4.3 mm
09:40 AM 50.5°F10.3°C 44.6°F7.0°C 80% 0.2 mph S0.3 kmh S 0.9 mph1.4 kmh 29.53 in1000.0 mb 0.06 in1.5 mm 0.00 in0.0 mm 0.17 in4.3 mm
09:45 AM 50.5°F10.3°C 44.6°F7.0°C 80% 0.3 mph WSW0.5 kmh WSW 0.9 mph1.4 kmh 29.53 in1000.0 mb 0.06 in1.5 mm 0.00 in0.0 mm 0.17 in4.3 mm
09:50 AM 50.5°F10.3°C 44.6°F7.0°C 80% 0.4 mph WSW0.6 kmh WSW 1.1 mph1.8 kmh 29.53 in1000.0 mb 0.11 in2.8 mm 0.60 in15.2 mm 0.22 in5.6 mm
09:55 AM 50.5°F10.3°C 44.6°F7.0°C 80% 0.1 mph SW0.2 kmh SW 1.1 mph1.8 kmh 29.53 in1000.0 mb 0.06 in1.5 mm 0.00 in0.0 mm 0.22 in5.6 mm
10:00 AM 50.5°F10.3°C 44.6°F7.0°C 81% 0.2 mph SSW0.3 kmh SSW 1.3 mph2.1 kmh 29.53 in1000.0 mb 0.06 in1.5 mm 0.00 in0.0 mm 0.22 in5.6 mm
10:05 AM 50.5°F10.3°C 44.6°F7.0°C 80% 0.8 mph WSW1.3 kmh WSW 1.3 mph2.1 kmh 29.53 in1000.0 mb 0.06 in1.5 mm 0.00 in0.0 mm 0.22 in5.6 mm
10:10 AM 50.4°F10.2°C 44.6°F7.0°C 80% 1.1 mph WSW1.8 kmh WSW 2.2 mph3.5 kmh 29.53 in1000.0 mb 0.06 in1.5 mm 0.00 in0.0 mm 0.22 in5.6 mm
10:15 AM 50.4°F10.2°C 44.6°F7.0°C 81% 0.7 mph WSW1.1 kmh WSW 2.2 mph3.5 kmh 29.53 in1000.0 mb 0.11 in2.8 mm 0.60 in15.2 mm 0.28 in7.1 mm
10:20 AM 50.5°F10.3°C 44.6°F7.0°C 81% Calm Calm -- 29.53 in1000.0 mb 0.11 in2.8 mm 0.00 in0.0 mm 0.28 in7.1 mm
10:25 AM 50.5°F10.3°C 46.4°F8.0°C 82% 0.1 mph WSW0.2 kmh WSW 1.3 mph2.1 kmh 29.53 in1000.0 mb 0.11 in2.8 mm 0.00 in0.0 mm 0.28 in7.1 mm
10:30 AM 50.4°F10.2°C 44.6°F7.0°C 81% 0.9 mph NW1.4 kmh NW 3.6 mph5.8 kmh 29.53 in1000.0 mb 0.11 in2.8 mm 0.00 in0.0 mm 0.28 in7.1 mm
10:35 AM 50.2°F10.1°C 44.6°F7.0°C 81% 1.4 mph NW2.3 kmh NW 3.6 mph5.8 kmh 29.56 in1001.0 mb 0.17 in4.3 mm 0.72 in18.3 mm 0.34 in8.6 mm
10:40 AM 50.2°F10.1°C 44.6°F7.0°C 81% 2.1 mph WNW3.4 kmh WNW 3.8 mph6.1 kmh 29.56 in1001.0 mb 0.17 in4.3 mm 0.00 in0.0 mm 0.34 in8.6 mm
10:45 AM 50.0°F10.0°C 44.6°F7.0°C 81% 2.7 mph NW4.3 kmh NW 3.8 mph6.1 kmh 29.56 in1001.0 mb 0.17 in4.3 mm 0.00 in0.0 mm 0.34 in8.6 mm
10:50 AM 50.0°F10.0°C 44.6°F7.0°C 81% 3.0 mph NW4.8 kmh NW 6.3 mph10.1 kmh 29.56 in1001.0 mb 0.11 in2.8 mm 0.00 in0.0 mm 0.34 in8.6 mm
10:55 AM 49.6°F9.8°C 44.6°F7.0°C 81% 3.8 mph NNW6.1 kmh NNW 6.3 mph10.1 kmh 29.56 in1001.0 mb 0.18 in4.6 mm 0.84 in21.3 mm 0.41 in10.4 mm
11:00 AM 49.6°F9.8°C 44.6°F7.0°C 81% 4.6 mph NNW7.4 kmh NNW 6.3 mph10.1 kmh 29.56 in1001.0 mb 0.18 in4.6 mm 0.00 in0.0 mm 0.41 in10.4 mm
11:05 AM 49.6°F9.8°C 44.6°F7.0°C 82% 4.0 mph NW6.4 kmh NW 6.3 mph10.1 kmh 29.56 in1001.0 mb 0.18 in4.6 mm 0.00 in0.0 mm 0.41 in10.4 mm
11:10 AM 49.5°F9.7°C 44.6°F7.0°C 82% 3.2 mph N5.1 kmh N 5.4 mph8.7 kmh 29.56 in1001.0 mb 0.18 in4.6 mm 0.00 in0.0 mm 0.41 in10.4 mm
11:15 AM 49.3°F9.6°C 44.6°F7.0°C 82% 2.7 mph NNW4.3 kmh NNW 3.8 mph6.1 kmh 29.56 in1001.0 mb 0.18 in4.6 mm 0.00 in0.0 mm 0.46 in11.7 mm
11:20 AM 49.3°F9.6°C 44.6°F7.0°C 82% 2.7 mph NNW4.3 kmh NNW 3.8 mph6.1 kmh 29.56 in1001.0 mb 0.18 in4.6 mm 0.00 in0.0 mm 0.46 in11.7 mm
11:25 AM 49.3°F9.6°C 44.6°F7.0°C 82% 3.2 mph NNW5.1 kmh NNW 5.4 mph8.7 kmh 29.56 in1001.0 mb 0.18 in4.6 mm 0.00 in0.0 mm 0.46 in11.7 mm
11:30 AM 49.3°F9.6°C 44.6°F7.0°C 82% 3.3 mph NW5.3 kmh NW 5.4 mph8.7 kmh 29.56 in1001.0 mb 0.18 in4.6 mm 0.00 in0.0 mm 0.46 in11.7 mm
11:35 AM 49.3°F9.6°C 44.6°F7.0°C 82% 2.9 mph NW4.7 kmh NW 4.9 mph7.9 kmh 29.56 in1001.0 mb 0.13 in3.3 mm 0.00 in0.0 mm 0.46 in11.7 mm
11:40 AM 49.5°F9.7°C 44.6°F7.0°C 83% 2.3 mph NW3.7 kmh NW 4.9 mph7.9 kmh 29.56 in1001.0 mb 0.13 in3.3 mm 0.00 in0.0 mm 0.46 in11.7 mm
11:45 AM 49.3°F9.6°C 44.6°F7.0°C 83% 2.1 mph NNW3.4 kmh NNW 3.6 mph5.8 kmh 29.56 in1001.0 mb 0.13 in3.3 mm 0.00 in0.0 mm 0.46 in11.7 mm
11:50 AM 49.6°F9.8°C 44.6°F7.0°C 83% 2.0 mph NW3.2 kmh NW 3.4 mph5.5 kmh 29.56 in1001.0 mb 0.18 in4.6 mm 0.60 in15.2 mm 0.52 in13.2 mm
11:55 AM 49.6°F9.8°C 44.6°F7.0°C 83% 1.5 mph NNW2.4 kmh NNW 2.5 mph4.0 kmh 29.56 in1001.0 mb 0.11 in2.8 mm 0.00 in0.0 mm 0.52 in13.2 mm
12:00 PM 49.6°F9.8°C 44.6°F7.0°C 83% 1.5 mph NNW2.4 kmh NNW 2.7 mph4.3 kmh 29.56 in1001.0 mb 0.11 in2.8 mm 0.00 in0.0 mm 0.52 in13.2 mm
12:05 PM 49.8°F9.9°C 44.6°F7.0°C 83% 1.2 mph NW1.9 kmh NW 2.7 mph4.3 kmh 29.56 in1001.0 mb 0.11 in2.8 mm 0.00 in0.0 mm 0.52 in13.2 mm
12:10 PM 49.6°F9.8°C 44.6°F7.0°C 83% 1.2 mph NNW1.9 kmh NNW 2.0 mph3.2 kmh 29.56 in1001.0 mb 0.11 in2.8 mm 0.00 in0.0 mm 0.52 in13.2 mm
12:15 PM 49.8°F9.9°C 44.6°F7.0°C 83% 1.4 mph NW2.3 kmh NW 3.1 mph5.0 kmh 29.56 in1001.0 mb 0.06 in1.5 mm 0.00 in0.0 mm 0.52 in13.2 mm
12:20 PM 49.8°F9.9°C 44.6°F7.0°C 83% 1.8 mph NW2.9 kmh NW 3.1 mph5.0 kmh 29.56 in1001.0 mb 0.06 in1.5 mm 0.00 in0.0 mm 0.52 in13.2 mm
12:25 PM 49.6°F9.8°C 44.6°F7.0°C 83% 1.7 mph NW2.7 kmh NW 3.1 mph5.0 kmh 29.56 in1001.0 mb 0.06 in1.5 mm 0.00 in0.0 mm 0.52 in13.2 mm
12:30 PM 50.0°F10.0°C 46.4°F8.0°C 84% 0.9 mph NW1.4 kmh NW 1.6 mph2.6 kmh 29.56 in1001.0 mb 0.06 in1.5 mm 0.00 in0.0 mm 0.52 in13.2 mm
12:35 PM 50.0°F10.0°C 46.4°F8.0°C 84% 0.4 mph NW0.6 kmh NW 1.3 mph2.1 kmh 29.56 in1001.0 mb 0.06 in1.5 mm 0.00 in0.0 mm 0.52 in13.2 mm
12:40 PM 50.0°F10.0°C 46.4°F8.0°C 84% 0.3 mph NW0.5 kmh NW 1.1 mph1.8 kmh 29.56 in1001.0 mb 0.06 in1.5 mm 0.00 in0.0 mm 0.52 in13.2 mm
12:45 PM 50.0°F10.0°C 46.4°F8.0°C 84% 0.7 mph NW1.1 kmh NW 1.6 mph2.6 kmh 29.56 in1001.0 mb 0.11 in2.8 mm 0.60 in15.2 mm 0.57 in14.5 mm
12:50 PM 50.0°F10.0°C 46.4°F8.0°C 84% 1.7 mph NW2.7 kmh NW 2.5 mph4.0 kmh 29.56 in1001.0 mb 0.06 in1.5 mm 0.00 in0.0 mm 0.57 in14.5 mm
12:55 PM 49.8°F9.9°C 46.4°F8.0°C 84% 2.1 mph NW3.4 kmh NW 3.1 mph5.0 kmh 29.56 in1001.0 mb 0.06 in1.5 mm 0.00 in0.0 mm 0.57 in14.5 mm
01:00 PM 50.0°F10.0°C 46.4°F8.0°C 84% 1.4 mph NNW2.3 kmh NNW 3.1 mph5.0 kmh 29.56 in1001.0 mb 0.06 in1.5 mm 0.00 in0.0 mm 0.57 in14.5 mm
01:05 PM 49.8°F9.9°C 46.4°F8.0°C 84% 1.1 mph NW1.8 kmh NW 2.9 mph4.7 kmh 29.56 in1001.0 mb 0.06 in1.5 mm 0.00 in0.0 mm 0.57 in14.5 mm
01:10 PM 50.0°F10.0°C 46.4°F8.0°C 84% 1.1 mph WNW1.8 kmh WNW 2.0 mph3.2 kmh 29.56 in1001.0 mb 0.06 in1.5 mm 0.00 in0.0 mm 0.57 in14.5 mm
01:15 PM 49.8°F9.9°C 46.4°F8.0°C 84% 1.1 mph NW1.8 kmh NW 1.3 mph2.1 kmh 29.56 in1001.0 mb 0.11 in2.8 mm 0.60 in15.2 mm 0.63 in16.0 mm
01:20 PM 49.6°F9.8°C 44.6°F7.0°C 84% 1.7 mph NW2.7 kmh NW 3.8 mph6.1 kmh 29.56 in1001.0 mb 0.11 in2.8 mm 0.00 in0.0 mm 0.63 in16.0 mm
01:25 PM 49.5°F9.7°C 44.6°F7.0°C 83% 2.2 mph NW3.5 kmh NW 3.8 mph6.1 kmh 29.56 in1001.0 mb 0.11 in2.8 mm 0.00 in0.0 mm 0.63 in16.0 mm
01:30 PM 49.3°F9.6°C 44.6°F7.0°C 83% 2.2 mph NW3.5 kmh NW 3.6 mph5.8 kmh 29.56 in1001.0 mb 0.11 in2.8 mm 0.00 in0.0 mm 0.63 in16.0 mm
01:35 PM 49.1°F9.5°C 44.6°F7.0°C 83% 2.4 mph NW3.9 kmh NW 3.6 mph5.8 kmh 29.56 in1001.0 mb 0.11 in2.8 mm 0.00 in0.0 mm 0.63 in16.0 mm
01:40 PM 48.9°F9.4°C 44.6°F7.0°C 83% 2.9 mph N4.7 kmh N 3.6 mph5.8 kmh 29.56 in1001.0 mb 0.06 in1.5 mm 0.00 in0.0 mm 0.63 in16.0 mm
01:45 PM 48.9°F9.4°C 44.6°F7.0°C 83% 3.5 mph N5.6 kmh N 6.7 mph10.8 kmh 29.56 in1001.0 mb 0.06 in1.5 mm 0.00 in0.0 mm 0.63 in16.0 mm
01:50 PM 48.7°F9.3°C 44.6°F7.0°C 83% 3.1 mph N5.0 kmh N 6.7 mph10.8 kmh 29.56 in1001.0 mb 0.06 in1.5 mm 0.00 in0.0 mm 0.63 in16.0 mm
01:55 PM 48.7°F9.3°C 44.6°F7.0°C 83% 2.2 mph N3.5 kmh N 6.5 mph10.5 kmh 29.56 in1001.0 mb 0.06 in1.5 mm 0.00 in0.0 mm 0.63 in16.0 mm
02:00 PM 48.7°F9.3°C 44.6°F7.0°C 83% 1.9 mph NNW3.1 kmh NNW 3.6 mph5.8 kmh 29.56 in1001.0 mb 0.13 in3.3 mm 0.08 in2.0 mm 0.70 in17.8 mm
02:05 PM 48.7°F9.3°C 44.6°F7.0°C 83% 2.4 mph NW3.9 kmh NW 5.6 mph9.0 kmh 29.56 in1001.0 mb 0.13 in3.3 mm 0.00 in0.0 mm 0.70 in17.8 mm
02:10 PM 48.9°F9.4°C 44.6°F7.0°C 83% 2.8 mph N4.5 kmh N 5.6 mph9.0 kmh 29.56 in1001.0 mb 0.13 in3.3 mm 0.00 in0.0 mm 0.70 in17.8 mm
02:15 PM 48.9°F9.4°C 44.6°F7.0°C 83% 2.3 mph NE3.7 kmh NE 3.4 mph5.5 kmh 29.56 in1001.0 mb 0.07 in1.8 mm 0.00 in0.0 mm 0.70 in17.8 mm
02:20 PM 48.7°F9.3°C 44.6°F7.0°C 83% 2.1 mph NNE3.4 kmh NNE 3.8 mph6.1 kmh 29.56 in1001.0 mb 0.07 in1.8 mm 0.00 in0.0 mm 0.70 in17.8 mm
02:25 PM 48.6°F9.2°C 44.6°F7.0°C 83% 2.7 mph NNE4.3 kmh NNE 3.8 mph6.1 kmh 29.56 in1001.0 mb 0.07 in1.8 mm 0.00 in0.0 mm 0.70 in17.8 mm
02:30 PM 48.6°F9.2°C 44.6°F7.0°C 83% 3.7 mph NNE6.0 kmh NNE 6.0 mph9.7 kmh 29.56 in1001.0 mb 0.07 in1.8 mm 0.00 in0.0 mm 0.70 in17.8 mm
02:35 PM 48.4°F9.1°C 42.8°F6.0°C 82% 5.0 mph NNE8.0 kmh NNE 6.5 mph10.5 kmh 29.56 in1001.0 mb 0.07 in1.8 mm 0.00 in0.0 mm 0.70 in17.8 mm
02:40 PM 48.2°F9.0°C 42.8°F6.0°C 82% 4.8 mph NNE7.7 kmh NNE 8.5 mph13.7 kmh 29.56 in1001.0 mb 0.07 in1.8 mm 0.00 in0.0 mm 0.70 in17.8 mm
02:45 PM 48.2°F9.0°C 42.8°F6.0°C 82% 4.5 mph NNE7.2 kmh NNE 8.5 mph13.7 kmh 29.56 in1001.0 mb 0.07 in1.8 mm 0.00 in0.0 mm 0.70 in17.8 mm
02:50 PM 48.2°F9.0°C 42.8°F6.0°C 82% 4.4 mph NNE7.1 kmh NNE 5.8 mph9.3 kmh 29.56 in1001.0 mb 0.07 in1.8 mm 0.00 in0.0 mm 0.70 in17.8 mm
02:55 PM 48.0°F8.9°C 42.8°F6.0°C 81% 4.4 mph NE7.1 kmh NE 8.1 mph13.0 kmh 29.56 in1001.0 mb 0.07 in1.8 mm 0.00 in0.0 mm 0.70 in17.8 mm
03:00 PM 48.0°F8.9°C 42.8°F6.0°C 82% 4.7 mph NE7.6 kmh NE 8.1 mph13.0 kmh 29.56 in1001.0 mb 0.00 in0.0 mm 0.00 in0.0 mm 0.70 in17.8 mm
03:05 PM 48.0°F8.9°C 42.8°F6.0°C 82% 4.7 mph NE7.6 kmh NE 7.6 mph12.2 kmh 29.56 in1001.0 mb 0.00 in0.0 mm 0.00 in0.0 mm 0.70 in17.8 mm
03:10 PM 48.2°F9.0°C 42.8°F6.0°C 82% 3.5 mph NNE5.6 kmh NNE 7.6 mph12.2 kmh 29.56 in1001.0 mb 0.00 in0.0 mm 0.00 in0.0 mm 0.70 in17.8 mm
03:15 PM 48.2°F9.0°C 42.8°F6.0°C 82% 3.2 mph N5.1 kmh N 7.6 mph12.2 kmh 29.56 in1001.0 mb 0.00 in0.0 mm 0.00 in0.0 mm 0.70 in17.8 mm
03:20 PM 48.0°F8.9°C 42.8°F6.0°C 82% 3.0 mph N4.8 kmh N 4.9 mph7.9 kmh 29.56 in1001.0 mb 0.00 in0.0 mm 0.00 in0.0 mm 0.70 in17.8 mm
03:25 PM 48.2°F9.0°C 42.8°F6.0°C 82% 3.1 mph NE5.0 kmh NE 6.5 mph10.5 kmh 29.56 in1001.0 mb 0.00 in0.0 mm 0.00 in0.0 mm 0.70 in17.8 mm
03:30 PM 48.4°F9.1°C 42.8°F6.0°C 82% 4.0 mph ENE6.4 kmh ENE 6.5 mph10.5 kmh 29.56 in1001.0 mb 0.00 in0.0 mm 0.00 in0.0 mm 0.70 in17.8 mm
03:35 PM 48.7°F9.3°C 44.6°F7.0°C 82% 3.1 mph ENE5.0 kmh ENE 5.6 mph9.0 kmh 29.56 in1001.0 mb 0.00 in0.0 mm 0.00 in0.0 mm 0.70 in17.8 mm
03:40 PM 48.7°F9.3°C 44.6°F7.0°C 82% 1.4 mph NE2.3 kmh NE 3.8 mph6.1 kmh 29.56 in1001.0 mb 0.00 in0.0 mm 0.00 in0.0 mm 0.70 in17.8 mm
03:45 PM 48.7°F9.3°C 44.6°F7.0°C 82% 1.4 mph E2.3 kmh E 4.3 mph6.9 kmh 29.56 in1001.0 mb 0.00 in0.0 mm 0.00 in0.0 mm 0.70 in17.8 mm
03:50 PM 48.7°F9.3°C 44.6°F7.0°C 82% 2.5 mph ENE4.0 kmh ENE 5.6 mph9.0 kmh 29.56 in1001.0 mb 0.00 in0.0 mm 0.00 in0.0 mm 0.70 in17.8 mm
03:55 PM 48.9°F9.4°C 44.6°F7.0°C 82% 2.9 mph NE4.7 kmh NE 5.6 mph9.0 kmh 29.56 in1001.0 mb 0.00 in0.0 mm 0.00 in0.0 mm 0.70 in17.8 mm
04:00 PM 48.9°F9.4°C 44.6°F7.0°C 82% 1.4 mph ENE2.3 kmh ENE 4.0 mph6.4 kmh 29.56 in1001.0 mb 0.00 in0.0 mm 0.00 in0.0 mm 0.70 in17.8 mm
04:05 PM 48.9°F9.4°C 44.6°F7.0°C 82% 0.3 mph WSW0.5 kmh WSW 1.3 mph2.1 kmh 29.56 in1001.0 mb 0.00 in0.0 mm 0.00 in0.0 mm 0.70 in17.8 mm
04:10 PM 48.9°F9.4°C 44.6°F7.0°C 82% 1.1 mph WSW1.8 kmh WSW 2.2 mph3.5 kmh 29.56 in1001.0 mb 0.00 in0.0 mm 0.00 in0.0 mm 0.70 in17.8 mm
04:15 PM 48.7°F9.3°C 42.8°F6.0°C 81% 1.9 mph WSW3.1 kmh WSW 3.6 mph5.8 kmh 29.56 in1001.0 mb 0.00 in0.0 mm 0.00 in0.0 mm 0.70 in17.8 mm
04:20 PM 48.6°F9.2°C 42.8°F6.0°C 81% 2.2 mph W3.5 kmh W 3.6 mph5.8 kmh 29.56 in1001.0 mb 0.00 in0.0 mm 0.00 in0.0 mm 0.70 in17.8 mm
04:25 PM 48.6°F9.2°C 42.8°F6.0°C 81% 1.7 mph W2.7 kmh W 3.4 mph5.5 kmh 29.56 in1001.0 mb 0.00 in0.0 mm 0.00 in0.0 mm 0.70 in17.8 mm
04:30 PM 48.4°F9.1°C 42.8°F6.0°C 82% 1.5 mph W2.4 kmh W 2.7 mph4.3 kmh 29.56 in1001.0 mb 0.00 in0.0 mm 0.00 in0.0 mm 0.70 in17.8 mm
04:35 PM 48.6°F9.2°C 44.6°F7.0°C 82% 1.5 mph W2.4 kmh W 2.7 mph4.3 kmh 29.59 in1002.0 mb 0.00 in0.0 mm 0.00 in0.0 mm 0.70 in17.8 mm
04:40 PM 48.4°F9.1°C 42.8°F6.0°C 82% 1.3 mph W2.1 kmh W 2.7 mph4.3 kmh 29.59 in1002.0 mb 0.00 in0.0 mm 0.00 in0.0 mm 0.70 in17.8 mm
04:45 PM 48.2°F9.0°C 42.8°F6.0°C 82% 1.1 mph WNW1.8 kmh WNW 1.6 mph2.6 kmh 29.59 in1002.0 mb 0.00 in0.0 mm 0.00 in0.0 mm 0.70 in17.8 mm
04:50 PM 48.2°F9.0°C 42.8°F6.0°C 82% 0.9 mph NW1.4 kmh NW 2.0 mph3.2 kmh 29.59 in1002.0 mb 0.00 in0.0 mm 0.00 in0.0 mm 0.70 in17.8 mm
04:55 PM 48.0°F8.9°C 42.8°F6.0°C 82% 0.7 mph NW1.1 kmh NW 2.0 mph3.2 kmh 29.59 in1002.0 mb 0.00 in0.0 mm 0.00 in0.0 mm 0.70 in17.8 mm
05:00 PM 48.0°F8.9°C 42.8°F6.0°C 82% 0.8 mph WNW1.3 kmh WNW 1.6 mph2.6 kmh 29.59 in1002.0 mb 0.00 in0.0 mm 0.00 in0.0 mm 0.70 in17.8 mm
05:05 PM 48.0°F8.9°C 42.8°F6.0°C 82% 0.9 mph WNW1.4 kmh WNW 1.6 mph2.6 kmh 29.59 in1002.0 mb 0.00 in0.0 mm 0.00 in0.0 mm 0.70 in17.8 mm
05:10 PM 48.0°F8.9°C 42.8°F6.0°C 83% 0.4 mph NW0.6 kmh NW 1.6 mph2.6 kmh 29.59 in1002.0 mb 0.00 in0.0 mm 0.00 in0.0 mm 0.70 in17.8 mm
05:15 PM 47.8°F8.8°C 42.8°F6.0°C 83% 0.3 mph WNW0.5 kmh WNW 1.3 mph2.1 kmh 29.59 in1002.0 mb 0.00 in0.0 mm 0.00 in0.0 mm 0.70 in17.8 mm
05:20 PM 47.8°F8.8°C 42.8°F6.0°C 83% 0.3 mph WNW0.5 kmh WNW 1.3 mph2.1 kmh 29.62 in1003.0 mb 0.00 in0.0 mm 0.00 in0.0 mm 0.70 in17.8 mm
05:25 PM 47.7°F8.7°C 42.8°F6.0°C 83% Calm Calm -- 29.62 in1003.0 mb 0.00 in0.0 mm 0.00 in0.0 mm 0.70 in17.8 mm
05:30 PM 47.7°F8.7°C 42.8°F6.0°C 83% Calm Calm -- 29.62 in1003.0 mb 0.00 in0.0 mm 0.00 in0.0 mm 0.70 in17.8 mm
05:35 PM 47.7°F8.7°C 42.8°F6.0°C 83% 0.1 mph NNW0.2 kmh NNW 0.9 mph1.4 kmh 29.62 in1003.0 mb 0.00 in0.0 mm 0.00 in0.0 mm 0.70 in17.8 mm
05:40 PM 47.7°F8.7°C 42.8°F6.0°C 84% 0.2 mph NW0.3 kmh NW 1.1 mph1.8 kmh 29.62 in1003.0 mb 0.00 in0.0 mm 0.00 in0.0 mm 0.70 in17.8 mm
05:45 PM 47.7°F8.7°C 42.8°F6.0°C 84% 0.5 mph NW0.8 kmh NW 1.3 mph2.1 kmh 29.62 in1003.0 mb 0.00 in0.0 mm 0.00 in0.0 mm 0.70 in17.8 mm
05:50 PM 47.7°F8.7°C 42.8°F6.0°C 84% 0.4 mph NW0.6 kmh NW 1.3 mph2.1 kmh 29.62 in1003.0 mb 0.00 in0.0 mm 0.00 in0.0 mm 0.70 in17.8 mm
05:55 PM 47.7°F8.7°C 42.8°F6.0°C 84% Calm Calm -- 29.62 in1003.0 mb 0.00 in0.0 mm 0.00 in0.0 mm 0.70 in17.8 mm
06:00 PM 47.5°F8.6°C 42.8°F6.0°C 84% Calm Calm -- 29.62 in1003.0 mb 0.00 in0.0 mm 0.00 in0.0 mm 0.70 in17.8 mm
06:05 PM 47.5°F8.6°C 42.8°F6.0°C 84% 0.1 mph WSW0.2 kmh WSW 1.1 mph1.8 kmh 29.62 in1003.0 mb 0.00 in0.0 mm 0.00 in0.0 mm 0.70 in17.8 mm
06:10 PM 47.3°F8.5°C 42.8°F6.0°C 84% 0.1 mph WSW0.2 kmh WSW 1.1 mph1.8 kmh 29.62 in1003.0 mb 0.00 in0.0 mm 0.00 in0.0 mm 0.70 in17.8 mm
06:15 PM 47.3°F8.5°C 42.8°F6.0°C 84% 0.1 mph WSW0.2 kmh WSW 1.1 mph1.8 kmh 29.62 in1003.0 mb 0.00 in0.0 mm 0.00 in0.0 mm 0.70 in17.8 mm
06:20 PM 47.3°F8.5°C 42.8°F6.0°C 84% 0.1 mph W0.2 kmh W 1.1 mph1.8 kmh 29.62 in1003.0 mb 0.00 in0.0 mm 0.00 in0.0 mm 0.70 in17.8 mm
06:25 PM 47.3°F8.5°C 42.8°F6.0°C 84% Calm Calm -- 29.62 in1003.0 mb 0.00 in0.0 mm 0.00 in0.0 mm 0.70 in17.8 mm
06:30 PM 47.3°F8.5°C 42.8°F6.0°C 84% Calm Calm -- 29.62 in1003.0 mb 0.00 in0.0 mm 0.00 in0.0 mm 0.70 in17.8 mm
06:35 PM 47.1°F8.4°C 42.8°F6.0°C 84% Calm Calm -- 29.65 in1004.1 mb 0.00 in0.0 mm 0.00 in0.0 mm 0.70 in17.8 mm
06:40 PM 47.1°F8.4°C 42.8°F6.0°C 84% Calm Calm -- 29.65 in1004.1 mb 0.00 in0.0 mm 0.00 in0.0 mm 0.70 in17.8 mm
06:45 PM 47.1°F8.4°C 42.8°F6.0°C 84% 0.1 mph WSW0.2 kmh WSW 0.9 mph1.4 kmh 29.65 in1004.1 mb 0.00 in0.0 mm 0.00 in0.0 mm 0.70 in17.8 mm
06:50 PM 46.9°F8.3°C 42.8°F6.0°C 84% 0.2 mph WSW0.3 kmh WSW 0.9 mph1.4 kmh 29.65 in1004.1 mb 0.00 in0.0 mm 0.00 in0.0 mm 0.70 in17.8 mm
06:55 PM 46.9°F8.3°C 42.8°F6.0°C 84% 0.4 mph NNW0.6 kmh NNW 1.1 mph1.8 kmh 29.65 in1004.1 mb 0.00 in0.0 mm 0.00 in0.0 mm 0.70 in17.8 mm
07:00 PM 46.8°F8.2°C 42.8°F6.0°C 84% 0.6 mph N1.0 kmh N 1.1 mph1.8 kmh 29.65 in1004.1 mb 0.00 in0.0 mm 0.00 in0.0 mm 0.70 in17.8 mm
07:05 PM 46.8°F8.2°C 42.8°F6.0°C 84% 0.4 mph N0.6 kmh N 1.1 mph1.8 kmh 29.65 in1004.1 mb 0.00 in0.0 mm 0.00 in0.0 mm 0.70 in17.8 mm
07:10 PM 46.6°F8.1°C 42.8°F6.0°C 84% 0.3 mph NNE0.5 kmh NNE 1.1 mph1.8 kmh 29.65 in1004.1 mb 0.00 in0.0 mm 0.00 in0.0 mm 0.70 in17.8 mm
07:15 PM 46.6°F8.1°C 42.8°F6.0°C 84% 0.3 mph NNE0.5 kmh NNE 1.1 mph1.8 kmh 29.65 in1004.1 mb 0.00 in0.0 mm 0.00 in0.0 mm 0.70 in17.8 mm
07:20 PM 46.4°F8.0°C 42.8°F6.0°C 84% 0.1 mph N0.2 kmh N 0.9 mph1.4 kmh 29.65 in1004.1 mb 0.00 in0.0 mm 0.00 in0.0 mm 0.70 in17.8 mm
07:25 PM 46.2°F7.9°C 42.8°F6.0°C 84% Calm Calm -- 29.65 in1004.1 mb 0.00 in0.0 mm 0.00 in0.0 mm 0.70 in17.8 mm
07:30 PM 46.0°F7.8°C 41.0°F5.0°C 84% Calm Calm -- 29.65 in1004.1 mb 0.00 in0.0 mm 0.00 in0.0 mm 0.70 in17.8 mm
07:35 PM 45.9°F7.7°C 41.0°F5.0°C 84% Calm Calm -- 29.65 in1004.1 mb 0.00 in0.0 mm 0.00 in0.0 mm 0.70 in17.8 mm
07:40 PM 45.9°F7.7°C 41.0°F5.0°C 84% Calm Calm -- 29.65 in1004.1 mb 0.00 in0.0 mm 0.00 in0.0 mm 0.70 in17.8 mm
07:45 PM 45.9°F7.7°C 41.0°F5.0°C 84% Calm Calm -- 29.65 in1004.1 mb 0.00 in0.0 mm 0.00 in0.0 mm 0.70 in17.8 mm
07:50 PM 45.5°F7.5°C 41.0°F5.0°C 84% 0.1 mph E0.2 kmh E 0.9 mph1.4 kmh 29.65 in1004.1 mb 0.00 in0.0 mm 0.00 in0.0 mm 0.70 in17.8 mm
07:55 PM 45.3°F7.4°C 41.0°F5.0°C 84% 0.2 mph E0.3 kmh E 0.9 mph1.4 kmh 29.65 in1004.1 mb 0.00 in0.0 mm 0.00 in0.0 mm 0.70 in17.8 mm
08:00 PM 45.1°F7.3°C 41.0°F5.0°C 84% 0.1 mph E0.2 kmh E 0.9 mph1.4 kmh 29.65 in1004.1 mb 0.00 in0.0 mm 0.00 in0.0 mm 0.70 in17.8 mm
08:05 PM 45.0°F7.2°C 41.0°F5.0°C 84% Calm Calm -- 29.65 in1004.1 mb 0.00 in0.0 mm 0.00 in0.0 mm 0.70 in17.8 mm
08:10 PM 44.6°F7.0°C 41.0°F5.0°C 84% Calm Calm -- 29.65 in1004.1 mb 0.00 in0.0 mm 0.00 in0.0 mm 0.70 in17.8 mm
08:15 PM 44.6°F7.0°C 41.0°F5.0°C 84% Calm Calm -- 29.65 in1004.1 mb 0.00 in0.0 mm 0.00 in0.0 mm 0.70 in17.8 mm
08:20 PM 44.4°F6.9°C 41.0°F5.0°C 84% 0.4 mph NE0.6 kmh NE 1.3 mph2.1 kmh 29.65 in1004.1 mb 0.00 in0.0 mm 0.00 in0.0 mm 0.70 in17.8 mm
08:25 PM 44.4°F6.9°C 41.0°F5.0°C 84% 0.4 mph NE0.6 kmh NE 1.3 mph2.1 kmh 29.65 in1004.1 mb 0.00 in0.0 mm 0.00 in0.0 mm 0.70 in17.8 mm
08:30 PM 44.1°F6.7°C 39.2°F4.0°C 84% Calm Calm -- 29.65 in1004.1 mb 0.00 in0.0 mm 0.00 in0.0 mm 0.70 in17.8 mm
08:35 PM 44.2°F6.8°C 39.2°F4.0°C 84% 0.3 mph NNE0.5 kmh NNE 1.1 mph1.8 kmh 29.65 in1004.1 mb 0.00 in0.0 mm 0.00 in0.0 mm 0.70 in17.8 mm
08:40 PM 43.9°F6.6°C 39.2°F4.0°C 84% 0.6 mph NE1.0 kmh NE 1.1 mph1.8 kmh 29.65 in1004.1 mb 0.00 in0.0 mm 0.00 in0.0 mm 0.70 in17.8 mm
08:45 PM 44.2°F6.8°C 41.0°F5.0°C 85% 0.5 mph NE0.8 kmh NE 1.1 mph1.8 kmh 29.65 in1004.1 mb 0.00 in0.0 mm 0.00 in0.0 mm 0.70 in17.8 mm
08:50 PM 43.7°F6.5°C 41.0°F5.0°C 85% 0.4 mph NE0.6 kmh NE 1.1 mph1.8 kmh 29.68 in1005.1 mb 0.00 in0.0 mm 0.00 in0.0 mm 0.70 in17.8 mm
08:55 PM 43.9°F6.6°C 41.0°F5.0°C 85% 0.4 mph NE0.6 kmh NE 1.3 mph2.1 kmh 29.68 in1005.1 mb 0.00 in0.0 mm 0.00 in0.0 mm 0.70 in17.8 mm
09:00 PM 43.9°F6.6°C 41.0°F5.0°C 85% 0.7 mph NE1.1 kmh NE 1.3 mph2.1 kmh 29.68 in1005.1 mb 0.00 in0.0 mm 0.00 in0.0 mm 0.70 in17.8 mm
09:05 PM 44.1°F6.7°C 41.0°F5.0°C 85% 1.2 mph NE1.9 kmh NE 2.7 mph4.3 kmh 29.65 in1004.1 mb 0.00 in0.0 mm 0.00 in0.0 mm 0.70 in17.8 mm
09:10 PM 44.2°F6.8°C 41.0°F5.0°C 85% 1.9 mph NE3.1 kmh NE 2.9 mph4.7 kmh 29.65 in1004.1 mb 0.00 in0.0 mm 0.00 in0.0 mm 0.70 in17.8 mm
09:15 PM 44.1°F6.7°C 41.0°F5.0°C 85% 1.8 mph NE2.9 kmh NE 2.9 mph4.7 kmh 29.65 in1004.1 mb 0.00 in0.0 mm 0.00 in0.0 mm 0.70 in17.8 mm
09:20 PM 44.1°F6.7°C 41.0°F5.0°C 85% 1.1 mph NE1.8 kmh NE 2.0 mph3.2 kmh 29.68 in1005.1 mb 0.00 in0.0 mm 0.00 in0.0 mm 0.70 in17.8 mm
09:25 PM 43.7°F6.5°C 41.0°F5.0°C 85% 0.6 mph NE1.0 kmh NE 2.0 mph3.2 kmh 29.68 in1005.1 mb 0.00 in0.0 mm 0.00 in0.0 mm 0.70 in17.8 mm
09:30 PM 43.9°F6.6°C 41.0°F5.0°C 85% 0.2 mph NNW0.3 kmh NNW 1.3 mph2.1 kmh 29.68 in1005.1 mb 0.00 in0.0 mm 0.00 in0.0 mm 0.70 in17.8 mm
09:35 PM 43.9°F6.6°C 41.0°F5.0°C 85% 0.2 mph NNW0.3 kmh NNW 1.3 mph2.1 kmh 29.68 in1005.1 mb 0.00 in0.0 mm 0.00 in0.0 mm 0.70 in17.8 mm
09:40 PM 43.9°F6.6°C 41.0°F5.0°C 85% Calm Calm -- 29.68 in1005.1 mb 0.00 in0.0 mm 0.00 in0.0 mm 0.70 in17.8 mm
09:45 PM 43.9°F6.6°C 41.0°F5.0°C 85% 0.3 mph NE0.5 kmh NE 1.6 mph2.6 kmh 29.68 in1005.1 mb 0.00 in0.0 mm 0.00 in0.0 mm 0.70 in17.8 mm
09:50 PM 44.1°F6.7°C 41.0°F5.0°C 85% 0.8 mph NE1.3 kmh NE 2.0 mph3.2 kmh 29.68 in1005.1 mb 0.00 in0.0 mm 0.00 in0.0 mm 0.70 in17.8 mm
09:55 PM 44.1°F6.7°C 41.0°F5.0°C 85% 0.9 mph NE1.4 kmh NE 2.0 mph3.2 kmh 29.68 in1005.1 mb 0.00 in0.0 mm 0.00 in0.0 mm 0.70 in17.8 mm
10:00 PM 44.1°F6.7°C 41.0°F5.0°C 85% 1.0 mph NE1.6 kmh NE 1.6 mph2.6 kmh 29.68 in1005.1 mb 0.00 in0.0 mm 0.00 in0.0 mm 0.70 in17.8 mm
10:05 PM 44.1°F6.7°C 41.0°F5.0°C 85% 1.1 mph NE1.8 kmh NE 2.9 mph4.7 kmh 29.68 in1005.1 mb 0.00 in0.0 mm 0.00 in0.0 mm 0.70 in17.8 mm
10:10 PM 43.9°F6.6°C 41.0°F5.0°C 85% 0.9 mph NE1.4 kmh NE 2.9 mph4.7 kmh 29.68 in1005.1 mb 0.00 in0.0 mm 0.00 in0.0 mm 0.70 in17.8 mm
10:15 PM 43.7°F6.5°C 41.0°F5.0°C 85% 0.9 mph NE1.4 kmh NE 2.2 mph3.5 kmh 29.68 in1005.1 mb 0.00 in0.0 mm 0.00 in0.0 mm 0.70 in17.8 mm
10:20 PM 43.7°F6.5°C 41.0°F5.0°C 85% 0.9 mph NNE1.4 kmh NNE 2.2 mph3.5 kmh 29.68 in1005.1 mb 0.00 in0.0 mm 0.00 in0.0 mm 0.70 in17.8 mm
10:25 PM 43.3°F6.3°C 39.2°F4.0°C 85% 0.9 mph N1.4 kmh N 1.6 mph2.6 kmh 29.68 in1005.1 mb 0.00 in0.0 mm 0.00 in0.0 mm 0.70 in17.8 mm
10:30 PM 43.3°F6.3°C 39.2°F4.0°C 85% 1.0 mph NNW1.6 kmh NNW 2.0 mph3.2 kmh 29.68 in1005.1 mb 0.00 in0.0 mm 0.00 in0.0 mm 0.70 in17.8 mm
10:35 PM 43.0°F6.1°C 39.2°F4.0°C 85% 1.2 mph N1.9 kmh N 2.0 mph3.2 kmh 29.68 in1005.1 mb 0.00 in0.0 mm 0.00 in0.0 mm 0.70 in17.8 mm
10:40 PM 43.0°F6.1°C 39.2°F4.0°C 85% 1.3 mph N2.1 kmh N 2.2 mph3.5 kmh 29.68 in1005.1 mb 0.00 in0.0 mm 0.00 in0.0 mm 0.70 in17.8 mm
10:45 PM 43.0°F6.1°C 39.2°F4.0°C 85% 1.4 mph N2.3 kmh N 2.7 mph4.3 kmh 29.68 in1005.1 mb 0.00 in0.0 mm 0.00 in0.0 mm 0.70 in17.8 mm
10:50 PM 43.0°F6.1°C 39.2°F4.0°C 85% 1.5 mph N2.4 kmh N 2.7 mph4.3 kmh 29.68 in1005.1 mb 0.00 in0.0 mm 0.00 in0.0 mm 0.70 in17.8 mm
10:55 PM 42.8°F6.0°C 39.2°F4.0°C 85% 0.7 mph N1.1 kmh N 2.7 mph4.3 kmh 29.68 in1005.1 mb 0.00 in0.0 mm 0.00 in0.0 mm 0.70 in17.8 mm
11:00 PM 42.8°F6.0°C 39.2°F4.0°C 85% 0.4 mph NNE0.6 kmh NNE 2.0 mph3.2 kmh 29.68 in1005.1 mb 0.00 in0.0 mm 0.00 in0.0 mm 0.61 in15.5 mm
11:05 PM 42.4°F5.8°C 39.2°F4.0°C 85% 0.5 mph NE0.8 kmh NE 2.2 mph3.5 kmh 29.68 in1005.1 mb 0.00 in0.0 mm 0.00 in0.0 mm 0.61 in15.5 mm
11:10 PM 42.4°F5.8°C 39.2°F4.0°C 85% 0.9 mph NE1.4 kmh NE 2.5 mph4.0 kmh 29.68 in1005.1 mb 0.00 in0.0 mm 0.00 in0.0 mm 0.61 in15.5 mm
11:15 PM 42.4°F5.8°C 39.2°F4.0°C 85% 1.2 mph NE1.9 kmh NE 2.5 mph4.0 kmh 29.68 in1005.1 mb 0.00 in0.0 mm 0.00 in0.0 mm 0.61 in15.5 mm
11:20 PM 42.6°F5.9°C 39.2°F4.0°C 85% 1.3 mph NE2.1 kmh NE 2.5 mph4.0 kmh 29.68 in1005.1 mb 0.00 in0.0 mm 0.00 in0.0 mm 0.61 in15.5 mm
11:25 PM 42.8°F6.0°C 39.2°F4.0°C 85% 1.9 mph NE3.1 kmh NE 4.3 mph6.9 kmh 29.68 in1005.1 mb 0.00 in0.0 mm 0.00 in0.0 mm 0.61 in15.5 mm
11:30 PM 43.2°F6.2°C 39.2°F4.0°C 85% 2.4 mph NE3.9 kmh NE 4.3 mph6.9 kmh 29.68 in1005.1 mb 0.00 in0.0 mm 0.00 in0.0 mm 0.61 in15.5 mm
11:35 PM 43.2°F6.2°C 39.2°F4.0°C 85% 2.2 mph NE3.5 kmh NE 3.8 mph6.1 kmh 29.68 in1005.1 mb 0.00 in0.0 mm 0.00 in0.0 mm 0.61 in15.5 mm
11:40 PM 43.2°F6.2°C 39.2°F4.0°C 85% 1.2 mph NE1.9 kmh NE 2.7 mph4.3 kmh 29.68 in1005.1 mb 0.00 in0.0 mm 0.00 in0.0 mm 0.61 in15.5 mm
11:45 PM 43.3°F6.3°C 39.2°F4.0°C 85% 0.9 mph NE1.4 kmh NE 2.0 mph3.2 kmh 29.68 in1005.1 mb 0.00 in0.0 mm 0.00 in0.0 mm 0.61 in15.5 mm
11:50 PM 43.3°F6.3°C 39.2°F4.0°C 86% 1.2 mph NE1.9 kmh NE 2.0 mph3.2 kmh 29.68 in1005.1 mb 0.00 in0.0 mm 0.00 in0.0 mm 0.61 in15.5 mm
11:55 PM 43.5°F6.4°C 39.2°F4.0°C 86% 1.0 mph NE1.6 kmh NE 1.6 mph2.6 kmh 29.68 in1005.1 mb 0.00 in0.0 mm 0.00 in0.0 mm 0.61 in15.5 mm